Time;durP1;ratioP1;P1;durP2;ratioP2;P2;SDS_P1;SDS_P2;PMS_P1;PMS_P2;Temp;Humidity;BMP_temperature;BMP_pressure;BME280_temperature;BME280_humidity;BME280_pressure;Samples;Min_cycle;Max_cycle;Signal;HPM_P1;HPM_P2
2022/07/11 00:01:47;;;;;;;2.25;1.13;;;18.90;84.40;;;;;;5075818;28;20503;-71
2022/07/11 00:04:13;;;;;;;1.45;0.90;;;18.90;85.00;;;;;;5074754;28;20044;-71
2022/07/11 00:06:39;;;;;;;2.20;0.98;;;18.90;85.40;;;;;;5074663;28;20114;-71
2022/07/11 00:09:04;;;;;;;4.03;1.30;;;18.80;85.60;;;;;;5075840;28;20036;-71
2022/07/11 00:11:30;;;;;;;7.00;1.33;;;18.70;85.60;;;;;;5075899;28;20399;-71
2022/07/11 00:13:56;;;;;;;2.72;0.88;;;18.60;86.50;;;;;;5075964;28;20048;-71
2022/07/11 00:16:21;;;;;;;3.55;1.17;;;18.60;87.10;;;;;;5074576;28;20068;-71
2022/07/11 00:18:47;;;;;;;5.05;1.10;;;18.70;86.60;;;;;;5075972;28;20040;-70
2022/07/11 00:21:13;;;;;;;3.25;0.95;;;18.70;87.00;;;;;;5074652;28;20086;-70
2022/07/11 00:23:39;;;;;;;4.82;1.23;;;18.60;87.10;;;;;;5075977;28;20036;-71
2022/07/11 00:26:05;;;;;;;2.80;1.10;;;18.60;87.40;;;;;;5075794;28;20127;-70
2022/07/11 00:28:31;;;;;;;4.63;1.42;;;18.70;87.30;;;;;;5075406;28;20033;-70
2022/07/11 00:30:56;;;;;;;1.60;1.15;;;18.70;86.90;;;;;;5075490;28;20055;-71
2022/07/11 00:33:22;;;;;;;4.82;0.95;;;18.50;87.60;;;;;;5075484;28;20071;-70
2022/07/11 00:35:48;;;;;;;2.75;1.15;;;18.50;88.00;;;;;;5075598;28;20071;-70
2022/07/11 00:38:14;;;;;;;2.40;1.05;;;18.60;87.40;;;;;;5075555;28;20055;-70
2022/07/11 00:40:39;;;;;;;3.38;1.15;;;18.50;87.70;;;;;;5075380;28;20033;-70
2022/07/11 00:43:06;;;;;;;3.75;1.20;;;18.40;88.90;;;;;;5075250;28;20098;-70
2022/07/11 00:45:32;;;;;;;1.33;0.90;;;18.40;89.20;;;;;;5073709;28;20094;-70
2022/07/11 00:47:58;;;;;;;4.65;1.55;;;18.40;89.40;;;;;;5075045;28;20044;-70
2022/07/11 00:50:25;;;;;;;2.13;1.20;;;18.40;89.60;;;;;;5075115;28;20029;-70
2022/07/11 00:52:55;;;;;;;3.50;1.92;;;18.50;89.80;;;;;;5075106;28;20050;-70
2022/07/11 00:55:22;;;;;;;4.95;1.25;;;18.40;90.40;;;;;;5075084;28;20041;-70
2022/07/11 00:57:49;;;;;;;2.65;1.50;;;18.40;90.20;;;;;;5074908;28;20025;-70
2022/07/11 01:00:17;;;;;;;5.60;1.73;;;18.40;90.70;;;;;;5074926;28;20169;-70
2022/07/11 01:02:43;;;;;;;5.00;1.85;;;18.50;90.60;;;;;;5074978;28;20036;-70
2022/07/11 01:05:08;;;;;;;1.92;1.25;;;18.50;90.80;;;;;;5074927;28;20530;-70
2022/07/11 01:07:34;;;;;;;2.05;1.40;;;18.50;91.00;;;;;;5075014;28;20099;-70
2022/07/11 01:10:00;;;;;;;3.58;1.58;;;18.40;91.30;;;;;;5072258;28;20143;-70
2022/07/11 01:12:26;;;;;;;3.28;1.40;;;18.40;91.40;;;;;;5071991;28;20107;-70
2022/07/11 01:14:59;;;;;;;5.63;1.50;;;18.40;91.70;;;;;;5071664;28;20032;-69
2022/07/11 01:17:24;;;;;;;2.72;1.58;;;18.30;91.60;;;;;;5074738;28;20056;-70
2022/07/11 01:19:50;;;;;;;3.08;1.25;;;18.30;92.00;;;;;;5074613;28;20037;-70
2022/07/11 01:22:20;;;;;;;5.25;1.50;;;18.30;92.00;;;;;;5074676;28;20083;-71
2022/07/11 01:24:46;;;;;;;3.30;1.45;;;18.20;92.10;;;;;;5073029;28;20044;-70
2022/07/11 01:27:12;;;;;;;4.28;2.03;;;18.30;92.10;;;;;;5074591;28;20409;-70
2022/07/11 01:29:39;;;;;;;5.25;2.38;;;18.20;92.20;;;;;;5074673;28;20046;-70
2022/07/11 01:32:07;;;;;;;4.70;1.60;;;18.20;92.40;;;;;;5073220;28;20153;-70
2022/07/11 01:34:33;;;;;;;3.13;1.50;;;18.30;92.50;;;;;;5074510;28;20044;-70
2022/07/11 01:37:01;;;;;;;3.55;1.98;;;18.30;92.40;;;;;;5073062;28;20053;-70
2022/07/11 01:39:29;;;;;;;3.85;1.70;;;18.30;92.50;;;;;;5074109;28;20128;-70
2022/07/11 01:41:58;;;;;;;5.88;1.88;;;18.20;92.70;;;;;;5074217;28;20047;-70
2022/07/11 01:44:24;;;;;;;7.85;2.65;;;18.30;92.70;;;;;;5074247;28;20044;-70
2022/07/11 01:46:50;;;;;;;3.65;1.55;;;18.20;92.60;;;;;;5074076;28;20507;-70
2022/07/11 01:49:16;;;;;;;5.35;1.55;;;18.20;92.70;;;;;;5074113;28;20055;-70
2022/07/11 01:51:42;;;;;;;5.38;1.67;;;18.10;92.60;;;;;;5074179;28;20040;-70
2022/07/11 01:54:08;;;;;;;3.42;1.50;;;18.30;92.70;;;;;;5074031;28;20070;-70
2022/07/11 01:56:34;;;;;;;4.88;1.85;;;18.20;92.70;;;;;;5072729;28;20048;-70
2022/07/11 01:59:00;;;;;;;4.80;1.80;;;18.10;93.10;;;;;;5072554;28;20071;-70
2022/07/11 02:01:26;;;;;;;5.10;1.48;;;18.10;93.20;;;;;;5072609;28;20041;-70
2022/07/11 02:03:53;;;;;;;2.88;1.63;;;17.90;93.50;;;;;;5073916;28;20119;-70
2022/07/11 02:06:19;;;;;;;7.85;1.63;;;17.80;93.50;;;;;;5073817;28;20151;-70
2022/07/11 02:08:45;;;;;;;4.60;1.73;;;17.80;93.10;;;;;;5072896;28;20166;-70
2022/07/11 02:11:10;;;;;;;6.30;1.80;;;17.90;93.10;;;;;;5073803;28;20040;-70
2022/07/11 02:13:36;;;;;;;4.10;1.98;;;17.90;92.90;;;;;;5073714;28;20049;-70
2022/07/11 02:16:02;;;;;;;2.58;1.60;;;17.80;93.10;;;;;;5073649;28;20048;-70
2022/07/11 02:18:28;;;;;;;5.28;1.60;;;17.80;93.20;;;;;;5073659;28;20035;-70
2022/07/11 02:20:54;;;;;;;3.72;1.77;;;17.90;93.00;;;;;;5073676;28;20036;-70
2022/07/11 02:23:20;;;;;;;2.85;1.60;;;17.60;94.00;;;;;;5073325;28;20106;-70
2022/07/11 02:25:47;;;;;;;3.25;1.33;;;17.60;94.10;;;;;;5073447;28;20048;-70
2022/07/11 02:28:13;;;;;;;4.88;1.65;;;17.50;94.50;;;;;;5073405;28;20036;-70
2022/07/11 02:30:40;;;;;;;5.03;1.63;;;17.50;94.10;;;;;;5072055;28;20438;-70
2022/07/11 02:33:07;;;;;;;3.45;1.45;;;17.80;93.60;;;;;;5073557;28;20044;-70
2022/07/11 02:35:35;;;;;;;3.90;1.60;;;17.80;93.80;;;;;;5073182;28;20070;-70
2022/07/11 02:38:01;;;;;;;3.03;1.38;;;17.80;93.40;;;;;;5073209;28;20399;-70
2022/07/11 02:40:27;;;;;;;2.22;1.52;;;17.70;93.60;;;;;;5072000;28;20131;-70
2022/07/11 02:42:53;;;;;;;3.90;1.40;;;17.70;93.70;;;;;;5073331;28;20387;-70
2022/07/11 02:45:19;;;;;;;3.97;1.73;;;17.80;93.70;;;;;;5063840;28;20151;-70
2022/07/11 02:47:45;;;;;;;2.85;1.73;;;17.60;93.80;;;;;;5051760;28;20583;-70
2022/07/11 02:50:13;;;;;;;5.15;2.05;;;17.30;94.70;;;;;;5053135;28;20139;-70
2022/07/11 02:52:40;;;;;;;1.85;1.40;;;17.40;94.30;;;;;;5052930;28;20055;-70
2022/07/11 02:55:08;;;;;;;3.60;1.90;;;17.20;95.10;;;;;;5051835;28;20384;-70
2022/07/11 02:57:36;;;;;;;3.90;1.85;;;17.20;95.00;;;;;;5052986;28;20044;-70
2022/07/11 03:00:04;;;;;;;5.85;2.03;;;17.10;95.40;;;;;;5053093;28;20068;-70
2022/07/11 03:02:30;;;;;;;6.32;2.08;;;17.10;95.20;;;;;;5052964;28;20041;-70
2022/07/11 03:04:57;;;;;;;3.08;1.90;;;17.30;94.90;;;;;;5052790;28;20048;-70
2022/07/11 03:07:26;;;;;;;4.22;1.80;;;17.40;94.70;;;;;;5053018;28;20526;-70
2022/07/11 03:09:53;;;;;;;4.60;1.98;;;17.50;94.40;;;;;;5050912;28;20047;-70
2022/07/11 03:12:19;;;;;;;5.38;1.63;;;17.50;94.30;;;;;;5051800;28;20032;-70
2022/07/11 03:14:45;;;;;;;3.22;1.60;;;17.50;94.30;;;;;;5052726;28;20044;-70
2022/07/11 03:17:11;;;;;;;3.38;1.67;;;17.50;94.80;;;;;;5052824;28;20079;-70
2022/07/11 03:19:37;;;;;;;4.35;1.85;;;17.20;95.20;;;;;;5052702;28;20056;-70
2022/07/11 03:22:04;;;;;;;3.42;1.85;;;17.00;95.40;;;;;;5052896;28;20094;-69
2022/07/11 03:24:30;;;;;;;2.97;1.67;;;16.90;95.30;;;;;;5052482;28;20134;-70
2022/07/11 03:26:55;;;;;;;4.10;1.83;;;16.80;95.60;;;;;;5052814;28;20571;-70
2022/07/11 03:29:21;;;;;;;4.25;1.77;;;16.70;95.90;;;;;;5052786;28;20063;-70
2022/07/11 03:31:47;;;;;;;5.00;1.85;;;16.70;95.90;;;;;;5051449;28;20101;-70
2022/07/11 03:34:13;;;;;;;5.13;1.30;;;16.80;95.90;;;;;;5052694;28;20037;-70
2022/07/11 03:36:39;;;;;;;4.25;1.50;;;16.80;96.20;;;;;;5052653;28;20044;-70
2022/07/11 03:39:05;;;;;;;3.38;1.88;;;16.70;96.10;;;;;;5052259;28;20151;-70
2022/07/11 03:41:30;;;;;;;5.07;1.83;;;16.70;96.30;;;;;;5052418;28;20040;-70
2022/07/11 03:43:56;;;;;;;4.82;1.70;;;16.50;96.50;;;;;;5052621;28;20072;-70
2022/07/11 03:46:23;;;;;;;4.00;1.85;;;16.70;96.30;;;;;;5052549;28;20060;-70
2022/07/11 03:48:49;;;;;;;4.70;1.50;;;16.70;96.40;;;;;;5052512;28;20055;-70
2022/07/11 03:51:16;;;;;;;3.55;1.63;;;16.70;96.20;;;;;;5052565;28;20052;-70
2022/07/11 03:53:42;;;;;;;3.35;1.80;;;16.70;96.50;;;;;;5052309;28;20451;-69
2022/07/11 03:56:08;;;;;;;2.05;1.38;;;16.60;97.00;;;;;;5052358;28;20124;-70
2022/07/11 03:58:34;;;;;;;5.47;1.55;;;16.70;96.80;;;;;;5052332;28;20128;-70
2022/07/11 04:00:59;;;;;;;6.75;1.48;;;16.50;95.70;;;;;;5057564;28;20559;-70
2022/07/11 04:03:25;;;;;;;2.35;1.52;;;16.40;95.70;;;;;;5072466;28;20122;-70
2022/07/11 04:05:51;;;;;;;2.75;1.63;;;16.20;96.90;;;;;;5072332;28;20086;-70
2022/07/11 04:08:17;;;;;;;2.83;1.58;;;16.20;97.20;;;;;;5072145;28;20044;-70
2022/07/11 04:10:43;;;;;;;3.58;1.50;;;16.30;97.60;;;;;;5070870;28;20101;-70
2022/07/11 04:13:09;;;;;;;4.80;1.90;;;16.20;98.00;;;;;;5072389;28;20380;-70
2022/07/11 04:15:35;;;;;;;1.83;1.63;;;16.10;98.40;;;;;;5072264;28;20056;-70
2022/07/11 04:18:01;;;;;;;3.53;1.85;;;16.00;98.70;;;;;;5072205;28;20500;-70
2022/07/11 04:20:27;;;;;;;2.35;1.20;;;16.20;98.60;;;;;;5074512;28;20036;-70
2022/07/11 04:22:52;;;;;;;3.42;1.70;;;16.10;99.00;;;;;;5075922;28;20032;-70
2022/07/11 04:25:18;;;;;;;4.00;1.90;;;16.10;98.80;;;;;;5075457;28;20059;-71
2022/07/11 04:27:44;;;;;;;3.80;1.60;;;;;;;;;;5075638;28;20049;-70
2022/07/11 04:30:10;;;;;;;1.58;1.35;;;15.80;99.80;;;;;;5075466;28;20051;-71
2022/07/11 04:32:36;;;;;;;8.95;1.85;;;15.90;99.90;;;;;;5074321;28;20047;-70
2022/07/11 04:35:03;;;;;;;7.18;2.28;;;15.90;99.90;;;;;;5074318;28;20066;-71
2022/07/11 04:37:29;;;;;;;4.25;2.03;;;16.20;99.90;;;;;;5091210;28;20098;-70
2022/07/11 04:39:55;;;;;;;4.13;1.42;;;16.30;99.80;;;;;;5075610;28;20068;-69
2022/07/11 04:42:21;;;;;;;5.07;1.88;;;16.10;99.90;;;;;;5075561;28;20046;-70
2022/07/11 04:44:46;;;;;;;6.70;1.98;;;16.20;99.90;;;;;;5075327;28;20494;-70
2022/07/11 04:47:12;;;;;;;7.18;1.65;;;16.40;99.20;;;;;;5057821;28;20534;-70
2022/07/11 04:49:38;;;;;;;4.15;1.70;;;16.30;99.50;;;;;;5070474;28;20120;-70
2022/07/11 04:52:05;;;;;;;4.63;1.60;;;16.40;99.40;;;;;;5075267;28;20426;-71
2022/07/11 04:54:30;;;;;;;4.95;1.98;;;16.20;99.90;;;;;;5075228;28;20047;-71
2022/07/11 04:56:56;;;;;;;5.18;1.88;;;16.20;99.90;;;;;;5073952;28;20048;-71
2022/07/11 04:59:24;;;;;;;2.88;1.70;;;16.20;99.90;;;;;;5075321;28;20514;-71
2022/07/11 05:01:50;;;;;;;4.75;1.90;;;16.30;99.90;;;;;;5075191;28;20040;-70
2022/07/11 05:04:16;;;;;;;3.65;1.50;;;16.50;99.40;;;;;;5075185;28;20036;-70
2022/07/11 05:06:42;;;;;;;4.45;1.92;;;16.60;99.50;;;;;;5069938;28;20386;-69
2022/07/11 05:09:07;;;;;;;4.65;2.15;;;16.70;99.70;;;;;;5065096;28;20041;-70
2022/07/11 05:11:34;;;;;;;5.07;1.80;;;16.70;98.50;;;;;;5054534;28;20128;-70
2022/07/11 05:14:00;;;;;;;6.15;2.17;;;16.70;98.40;;;;;;5058441;28;20032;-70
2022/07/11 05:16:27;;;;;;;7.50;1.88;;;16.90;98.50;;;;;;5070866;28;20036;-70
2022/07/11 05:18:53;;;;;;;2.85;1.70;;;17.00;97.80;;;;;;5074487;28;20032;-69
2022/07/11 05:21:23;;;;;;;3.20;2.03;;;17.10;97.60;;;;;;5072477;28;20044;-71
2022/07/11 05:23:49;;;;;;;5.00;1.88;;;17.40;97.50;;;;;;5071881;28;20041;-70
2022/07/11 05:26:16;;;;;;;2.65;1.75;;;17.40;96.90;;;;;;5074307;28;20104;-70
2022/07/11 05:28:42;;;;;;;4.32;1.60;;;17.50;97.00;;;;;;5074242;28;20036;-69
2022/07/11 05:31:08;;;;;;;5.43;2.08;;;17.60;98.00;;;;;;5073935;28;20105;-70
2022/07/11 05:33:34;;;;;;;4.35;2.35;;;17.80;96.80;;;;;;5073652;28;20450;-71
2022/07/11 05:36:01;;;;;;;4.03;1.67;;;18.10;96.90;;;;;;5074241;28;20040;-70
2022/07/11 05:38:27;;;;;;;8.32;1.92;;;18.30;96.70;;;;;;5073476;28;20037;-70
2022/07/11 05:40:53;;;;;;;2.97;1.50;;;18.50;96.70;;;;;;5074478;28;20046;-70
2022/07/11 05:43:19;;;;;;;3.08;1.77;;;18.60;96.30;;;;;;5074073;28;20040;-72
2022/07/11 05:45:44;;;;;;;3.55;1.50;;;18.60;96.30;;;;;;5072851;28;20536;-70
2022/07/11 05:48:10;;;;;;;4.13;1.73;;;18.60;96.60;;;;;;5072697;28;20041;-70
2022/07/11 05:50:36;;;;;;;3.83;1.77;;;18.70;97.30;;;;;;5073616;28;20044;-70
2022/07/11 05:53:02;;;;;;;2.80;1.50;;;18.80;96.90;;;;;;5074173;28;20119;-71
2022/07/11 05:55:31;;;;;;;3.92;1.70;;;18.90;96.60;;;;;;5072738;28;20036;-72
2022/07/11 05:57:59;;;;;;;5.20;1.88;;;18.90;97.00;;;;;;5073967;28;20048;-74
2022/07/11 06:00:27;;;;;;;8.88;1.80;;;19.10;97.00;;;;;;5073944;28;20036;-75
2022/07/11 06:02:53;;;;;;;6.13;1.80;;;19.30;96.30;;;;;;5074076;28;20419;-73
2022/07/11 06:05:18;;;;;;;4.07;2.00;;;19.30;96.40;;;;;;5073809;28;20052;-74
2022/07/11 06:10:28;;;;;;;14.15;3.33;;;19.20;95.80;;;;;;5073743;28;20063;-70
2022/07/11 06:12:54;;;;;;;28.75;6.35;;;19.40;96.10;;;;;;5073669;28;20503;-69
2022/07/11 06:15:21;;;;;;;40.08;8.25;;;19.60;95.90;;;;;;5073150;28;20044;-72
2022/07/11 06:17:46;;;;;;;7.15;2.17;;;19.80;95.80;;;;;;5073385;28;20039;-72
2022/07/11 06:20:12;;;;;;;6.93;2.58;;;20.00;95.70;;;;;;5073385;28;20044;-67
2022/07/11 06:22:38;;;;;;;4.80;1.90;;;20.00;95.30;;;;;;5073475;28;20408;-70
2022/07/11 06:25:04;;;;;;;32.65;7.53;;;20.10;94.70;;;;;;5073432;28;20147;-68
2022/07/11 06:27:30;;;;;;;7.82;2.63;;;20.20;96.70;;;;;;5073555;28;20094;-72
2022/07/11 06:29:56;;;;;;;6.68;1.90;;;20.50;96.10;;;;;;5073452;28;20032;-71
2022/07/11 06:32:23;;;;;;;5.85;1.40;;;20.40;95.10;;;;;;5073456;28;20048;-68
2022/07/11 06:34:49;;;;;;;2.65;1.70;;;20.60;95.30;;;;;;5073308;28;20127;-72
2022/07/11 06:37:15;;;;;;;5.50;1.60;;;20.70;94.70;;;;;;5073160;28;20123;-70
2022/07/11 06:39:41;;;;;;;13.38;2.63;;;20.70;94.50;;;;;;5073243;28;20395;-72
2022/07/11 06:42:07;;;;;;;2.33;1.27;;;20.70;93.80;;;;;;5069785;28;20047;-74
2022/07/11 06:44:32;;;;;;;3.80;1.50;;;20.90;94.60;;;;;;5071263;28;20073;-76
2022/07/11 06:46:58;;;;;;;11.20;1.88;;;21.00;93.80;;;;;;5071066;28;20056;-74
2022/07/11 06:49:24;;;;;;;5.22;1.30;;;21.20;94.30;;;;;;5070151;28;20170;-73
2022/07/11 06:51:51;;;;;;;7.88;1.40;;;21.10;93.00;;;;;;5070934;28;20085;-75
2022/07/11 06:54:17;;;;;;;3.65;1.60;;;21.30;93.80;;;;;;5069427;28;20130;-75
2022/07/11 06:56:45;;;;;;;3.00;1.45;;;21.30;93.30;;;;;;5071181;28;20170;-73
2022/07/11 06:59:11;;;;;;;2.92;1.30;;;21.20;92.80;;;;;;5070869;28;20075;-71
2022/07/11 07:21:02;;;;;;;4.72;1.63;;;21.90;91.90;;;;;;5231322;22;20467;-69
2022/07/11 07:23:28;;;;;;;2.30;1.10;;;22.50;91.30;;;;;;5029624;28;20442;-77
2022/07/11 07:25:54;;;;;;;2.97;1.30;;;22.60;91.20;;;;;;5028890;28;20057;-69
2022/07/11 07:28:20;;;;;;;5.03;1.42;;;22.90;90.50;;;;;;5028706;28;20131;-69
2022/07/11 07:30:47;;;;;;;3.40;1.50;;;22.70;91.40;;;;;;5029623;28;20075;-69
2022/07/11 07:33:12;;;;;;;1.80;1.20;;;22.60;92.10;;;;;;5028659;28;20048;-69
2022/07/11 07:35:38;;;;;;;4.75;1.00;;;22.80;89.80;;;;;;5027852;28;20046;-69
2022/07/11 07:38:04;;;;;;;2.60;1.08;;;22.20;89.60;;;;;;5026326;28;20314;-69
2022/07/11 07:40:30;;;;;;;5.45;1.20;;;22.00;90.60;;;;;;5029262;28;20396;-69
2022/07/11 07:42:56;;;;;;;1.80;0.90;;;22.50;90.30;;;;;;5030233;28;20107;-69
2022/07/11 07:45:22;;;;;;;5.20;1.77;;;22.00;88.70;;;;;;5029809;28;20079;-70
2022/07/11 07:47:48;;;;;;;2.40;1.38;;;22.10;89.60;;;;;;5030210;28;20029;-69
2022/07/11 07:50:14;;;;;;;5.47;1.08;;;22.40;89.10;;;;;;5029458;28;20356;-69
2022/07/11 07:52:40;;;;;;;6.18;1.00;;;23.20;88.50;;;;;;5030440;28;20053;-68
2022/07/11 07:55:06;;;;;;;3.92;1.15;;;22.80;87.50;;;;;;5032633;28;20048;-68
2022/07/11 07:57:32;;;;;;;3.65;1.35;;;22.70;89.60;;;;;;5043962;28;20075;-68
2022/07/11 08:02:42;;;;;;;5.13;0.98;;;23.50;90.20;;;;;;5053915;28;20438;-68
2022/07/11 08:05:09;;;;;;;3.75;1.13;;;23.50;88.50;;;;;;5053144;28;20053;-68
2022/07/11 08:07:35;;;;;;;4.18;1.00;;;22.90;87.50;;;;;;5042044;28;20076;-68
2022/07/11 08:10:06;;;;;;;1.73;0.90;;;22.60;87.90;;;;;;5034521;28;20102;-68
2022/07/11 08:12:31;;;;;;;;;;;24.10;90.70;;;;;;5034817;28;20135;-68
2022/07/11 08:14:57;;;;;;;3.70;1.30;;;24.30;90.20;;;;;;5034178;28;20398;-68
2022/07/11 08:17:23;;;;;;;3.13;0.93;;;24.00;90.90;;;;;;5035623;28;20048;-68
2022/07/11 08:19:48;;;;;;;4.05;1.10;;;24.70;86.60;;;;;;5035418;28;20045;-68
2022/07/11 08:22:14;;;;;;;3.90;1.10;;;24.30;87.10;;;;;;5033744;28;20140;-69
2022/07/11 08:24:40;;;;;;;2.70;0.98;;;24.40;86.20;;;;;;5033946;28;20100;-69
2022/07/11 08:27:06;;;;;;;2.45;1.00;;;24.00;87.20;;;;;;5036261;28;20576;-68
2022/07/11 08:29:32;;;;;;;5.95;1.40;;;24.80;85.60;;;;;;5024909;28;20037;-68
2022/07/11 08:31:57;;;;;;;4.13;1.10;;;25.10;86.90;;;;;;5025481;28;20077;-68
2022/07/11 08:34:24;;;;;;;5.03;0.95;;;24.70;86.60;;;;;;5022810;28;20136;-68
2022/07/11 08:36:51;;;;;;;5.22;1.10;;;23.90;86.20;;;;;;5021698;28;20037;-68
2022/07/11 08:39:17;;;;;;;1.33;1.10;;;23.40;87.10;;;;;;5000059;28;20030;-68
2022/07/11 08:41:47;;;;;;;2.75;1.20;;;24.00;87.20;;;;;;5014047;28;20496;-68
2022/07/11 08:44:15;;;;;;;4.68;1.17;;;23.60;86.20;;;;;;4997313;28;20073;-68
2022/07/11 08:46:41;;;;;;;2.45;1.15;;;23.70;87.40;;;;;;5027362;28;20052;-69
2022/07/11 08:49:07;;;;;;;4.43;1.02;;;22.90;87.80;;;;;;5033140;28;20064;-69
2022/07/11 08:51:37;;;;;;;5.40;0.90;;;23.00;87.90;;;;;;5033098;28;20100;-68
2022/07/11 08:54:03;;;;;;;2.95;0.95;;;23.80;87.40;;;;;;5035412;28;20040;-68
2022/07/11 08:56:30;;;;;;;6.18;1.23;;;23.90;86.20;;;;;;5035465;28;20041;-68
2022/07/11 08:58:59;;;;;;;4.65;1.38;;;24.70;90.60;;;;;;5034032;28;20041;-68
2022/07/11 09:01:34;;;;;;;4.28;1.00;;;24.50;85.20;;;;;;5029925;28;20044;-67
2022/07/11 09:04:00;;;;;;;2.45;1.10;;;25.00;84.70;;;;;;5033505;28;20049;-67
2022/07/11 09:06:27;;;;;;;2.10;1.02;;;24.50;84.10;;;;;;5030911;28;20542;-68
2022/07/11 09:08:57;;;;;;;2.38;1.13;;;24.30;85.80;;;;;;5032947;28;20061;-68
2022/07/11 09:11:22;;;;;;;;;;;23.70;86.40;;;;;;5033251;28;20158;-68
2022/07/11 09:13:48;;;;;;;2.20;0.95;;;23.80;85.90;;;;;;5033236;28;20379;-69
2022/07/11 09:16:19;;;;;;;5.70;1.08;;;24.00;87.10;;;;;;5032549;28;20037;-70
2022/07/11 09:18:44;;;;;;;;;;;24.00;86.00;;;;;;5032803;28;20041;-69
2022/07/11 09:26:46;;;;;;;2.78;1.10;;;24.80;86.20;;;;;;5032952;28;20088;-69
2022/07/11 09:29:20;;;;;;;5.70;1.10;;;25.10;86.50;;;;;;5039433;28;20486;-69
2022/07/11 09:31:47;;;;;;;3.03;1.05;;;24.20;84.10;;;;;;5037023;28;20407;-70
2022/07/11 09:34:21;;;;;;;1.88;0.93;;;23.70;86.70;;;;;;5031621;28;20030;-69
2022/07/11 09:36:51;;;;;;;10.15;1.30;;;23.90;86.70;;;;;;5032409;28;20439;-71
2022/07/11 09:39:20;;;;;;;1.58;0.93;;;24.50;89.10;;;;;;5032509;28;20176;-69
2022/07/11 09:41:48;;;;;;;5.65;1.80;;;24.20;85.30;;;;;;5032569;28;20038;-70
2022/07/11 09:44:22;;;;;;;1.80;0.98;;;24.30;85.40;;;;;;5032035;28;20049;-69
2022/07/11 09:46:53;;;;;;;2.53;1.00;;;24.40;85.80;;;;;;5032554;28;20049;-70
2022/07/11 09:49:32;;;;;;;3.42;1.33;;;24.80;85.20;;;;;;5031343;28;20121;-70
2022/07/11 09:52:16;;;;;;;5.07;1.10;;;24.90;86.30;;;;;;5032605;28;20037;-69
2022/07/11 09:55:01;;;;;;;2.58;1.25;;;25.20;85.50;;;;;;5033953;28;20026;-69
2022/07/11 09:57:36;;;;;;;4.68;1.17;;;24.70;84.90;;;;;;5031381;28;20037;-73
2022/07/11 10:00:12;;;;;;;4.38;1.38;;;24.90;85.20;;;;;;5032014;28;20084;-72
2022/07/11 10:02:38;;;;;;;4.68;1.38;;;24.60;86.40;;;;;;5031624;28;20042;-71
2022/07/11 10:05:06;;;;;;;5.53;1.20;;;24.80;85.50;;;;;;5031861;28;20049;-69
2022/07/11 10:07:32;;;;;;;2.60;1.50;;;24.90;85.40;;;;;;5032186;28;20045;-69
2022/07/11 10:10:04;;;;;;;10.48;1.10;;;24.70;86.20;;;;;;5032391;28;20034;-69
2022/07/11 10:12:32;;;;;;;4.82;1.17;;;25.00;88.00;;;;;;5030182;28;20531;-74
2022/07/11 10:15:08;;;;;;;1.67;1.00;;;24.70;84.90;;;;;;5031897;28;20516;-69
2022/07/11 10:17:40;;;;;;;4.78;1.20;;;24.70;87.10;;;;;;5031427;28;20044;-70
2022/07/11 10:20:18;;;;;;;14.50;1.08;;;24.10;87.80;;;;;;5030736;28;20496;-70
2022/07/11 10:23:21;;;;;;;2.85;1.20;;;24.60;86.10;;;;;;5031622;28;20041;-69
2022/07/11 10:26:24;;;;;;;4.45;1.02;;;24.80;88.10;;;;;;5031320;28;20143;-70
2022/07/11 10:28:57;;;;;;;2.20;1.13;;;24.80;87.00;;;;;;5031890;28;20043;-72
2022/07/11 10:31:24;;;;;;;1.92;0.88;;;25.10;89.10;;;;;;5030156;28;20033;-74
2022/07/11 10:34:16;;;;;;;2.97;0.93;;;25.30;87.30;;;;;;5030917;28;20120;-71
2022/07/11 10:36:43;;;;;;;5.47;1.30;;;25.20;85.60;;;;;;5031254;28;20132;-70
2022/07/11 10:39:29;;;;;;;11.25;1.20;;;24.80;87.40;;;;;;5030935;28;20055;-69
2022/07/11 10:42:00;;;;;;;4.85;1.05;;;25.10;86.50;;;;;;5032790;28;20665;-69
2022/07/11 10:44:27;;;;;;;3.33;1.10;;;25.10;85.00;;;;;;5030656;28;20810;-75
2022/07/11 10:46:54;;;;;;;5.60;1.52;;;24.80;86.90;;;;;;5031479;28;20519;-70
2022/07/11 10:49:48;;;;;;;6.72;1.20;;;24.40;87.50;;;;;;5031470;28;20037;-72
2022/07/11 10:52:22;;;;;;;3.47;1.30;;;24.30;86.60;;;;;;5030959;28;20045;-70
2022/07/11 10:54:57;;;;;;;28.08;11.93;;;24.70;87.60;;;;;;5031577;28;20049;-74
2022/07/11 10:57:35;;;;;;;3.45;1.35;;;25.00;88.00;;;;;;5031258;28;20045;-73
2022/07/11 11:00:08;;;;;;;4.05;1.08;;;24.30;86.60;;;;;;5021882;28;20124;-72
2022/07/11 11:03:03;;;;;;;5.97;1.35;;;25.00;87.20;;;;;;5029239;28;20463;-70
2022/07/11 11:05:43;;;;;;;2.78;1.10;;;24.40;87.00;;;;;;5016460;28;20057;-70
2022/07/11 11:11:01;;;;;;;4.70;1.40;;;24.70;85.70;;;;;;5019698;28;20129;-72
2022/07/11 11:13:29;;;;;;;2.63;1.13;;;24.70;86.20;;;;;;5019079;28;20041;-74
2022/07/11 11:16:00;;;;;;;3.08;0.98;;;24.80;85.40;;;;;;5021139;28;20136;-69
2022/07/11 11:18:25;;;;;;;2.88;1.23;;;24.70;86.60;;;;;;5019340;28;20484;-71
2022/07/11 11:21:07;;;;;;;2.13;0.98;;;24.30;86.50;;;;;;5018885;28;20117;-78
2022/07/11 11:23:41;;;;;;;3.15;1.15;;;24.30;88.30;;;;;;5018834;28;20041;-77
2022/07/11 11:26:16;;;;;;;3.15;0.80;;;24.40;88.40;;;;;;5019633;28;20053;-73
2022/07/11 11:29:00;;;;;;;4.43;1.33;;;24.20;88.10;;;;;;5018948;28;20092;-77
2022/07/11 11:31:29;;;;;;;10.73;1.20;;;24.20;88.80;;;;;;5022432;28;20516;-76
2022/07/11 11:33:59;;;;;;;1.00;0.68;;;24.20;87.50;;;;;;5022891;28;20565;-73
2022/07/11 11:36:30;;;;;;;4.05;0.82;;;24.20;89.10;;;;;;5005258;28;20512;-75
2022/07/11 11:38:59;;;;;;;4.20;1.05;;;24.70;87.90;;;;;;5023266;28;20040;-73
2022/07/11 11:41:30;;;;;;;3.83;1.02;;;24.10;86.90;;;;;;5008284;28;20114;-75
2022/07/11 11:44:09;;;;;;;4.68;1.00;;;24.00;87.50;;;;;;5031508;28;20035;-71
2022/07/11 11:46:36;;;;;;;3.58;1.40;;;24.50;88.30;;;;;;5023988;28;20057;-75
2022/07/11 11:49:04;;;;;;;2.33;1.25;;;24.50;87.90;;;;;;5033626;28;20061;-71
2022/07/11 11:51:32;;;;;;;2.90;1.23;;;24.40;87.80;;;;;;5017140;28;20041;-71
2022/07/11 11:54:00;;;;;;;4.55;1.63;;;24.60;88.30;;;;;;5034421;28;20045;-70
2022/07/11 11:56:34;;;;;;;6.32;1.60;;;24.50;88.90;;;;;;5034193;28;20038;-71
2022/07/11 11:59:05;;;;;;;3.33;1.15;;;24.90;87.40;;;;;;5035779;28;20049;-68
2022/07/11 12:01:32;;;;;;;4.63;1.20;;;24.60;88.10;;;;;;5033903;28;20037;-70
2022/07/11 12:04:10;;;;;;;5.93;1.02;;;24.70;88.40;;;;;;5033642;28;20118;-70
2022/07/11 12:06:40;;;;;;;7.65;1.77;;;24.30;88.50;;;;;;5035851;28;20081;-70
2022/07/11 12:09:09;;;;;;;2.58;0.95;;;24.50;88.40;;;;;;5037876;28;20454;-72
2022/07/11 12:11:36;;;;;;;2.30;0.85;;;24.50;87.90;;;;;;5031581;28;20041;-69
2022/07/11 12:14:09;;;;;;;2.85;0.80;;;24.60;88.20;;;;;;5025574;28;20176;-69
2022/07/11 12:16:49;;;;;;;5.22;0.98;;;24.50;88.20;;;;;;5024537;28;20078;-69
2022/07/11 12:19:21;;;;;;;4.38;1.40;;;24.50;89.00;;;;;;5031112;28;20041;-72
2022/07/11 12:21:55;;;;;;;2.90;1.10;;;24.50;88.20;;;;;;5034360;28;20077;-69
2022/07/11 12:24:26;;;;;;;9.43;0.88;;;24.80;88.60;;;;;;5031490;28;20538;-71
2022/07/11 12:26:52;;;;;;;4.60;0.90;;;24.70;87.80;;;;;;5031797;28;20126;-70
2022/07/11 12:29:22;;;;;;;2.42;1.10;;;25.00;87.20;;;;;;5032053;28;20041;-69
2022/07/11 12:31:50;;;;;;;6.68;1.30;;;25.10;87.80;;;;;;5015915;28;20404;-70
2022/07/11 12:34:44;;;;;;;4.82;1.10;;;24.70;86.80;;;;;;5033774;28;20041;-70
2022/07/11 12:37:14;;;;;;;4.13;0.93;;;24.90;88.10;;;;;;5032241;28;20160;-77
2022/07/11 12:39:54;;;;;;;4.85;1.20;;;24.90;88.20;;;;;;5013947;28;20128;-69
2022/07/11 12:42:27;;;;;;;1.42;0.90;;;25.00;88.00;;;;;;5014893;28;20087;-69
2022/07/11 12:45:08;;;;;;;4.53;1.60;;;25.30;87.70;;;;;;5015653;28;20037;-69
2022/07/11 12:47:39;;;;;;;2.90;1.10;;;25.00;87.00;;;;;;5014614;28;20148;-69
2022/07/11 12:50:15;;;;;;;1.80;1.00;;;25.20;87.00;;;;;;5014813;28;20085;-69
2022/07/11 12:52:46;;;;;;;4.90;0.80;;;24.90;87.30;;;;;;5015757;28;20050;-69
2022/07/11 12:55:22;;;;;;;3.90;1.00;;;25.20;87.00;;;;;;5015820;28;20046;-70
2022/07/11 12:58:18;;;;;;;3.30;0.93;;;25.00;86.90;;;;;;5015773;28;20050;-70
2022/07/11 13:01:04;;;;;;;2.65;1.08;;;25.10;87.70;;;;;;5014758;28;20437;-70
2022/07/11 13:03:33;;;;;;;1.85;0.98;;;25.10;87.50;;;;;;5014268;28;20042;-70
2022/07/11 13:06:02;;;;;;;3.22;0.98;;;25.20;87.70;;;;;;5015332;28;20074;-70
2022/07/11 13:08:51;;;;;;;6.82;1.17;;;25.40;88.00;;;;;;5015223;28;20088;-74
2022/07/11 13:11:24;;;;;;;3.63;0.95;;;25.40;87.70;;;;;;4997954;28;20052;-69
2022/07/11 13:13:51;;;;;;;2.65;0.80;;;25.50;87.10;;;;;;5015395;28;20427;-69
2022/07/11 13:16:18;;;;;;;2.05;0.77;;;25.50;86.90;;;;;;5015137;28;20468;-70
2022/07/11 13:18:45;;;;;;;4.05;0.80;;;25.10;85.80;;;;;;5016205;28;20037;-69
2022/07/11 13:21:11;;;;;;;4.70;0.90;;;25.20;87.00;;;;;;5027356;28;20128;-71
2022/07/11 13:23:38;;;;;;;1.52;0.77;;;25.50;88.90;;;;;;5038498;28;20068;-69
2022/07/11 13:26:07;;;;;;;1.70;0.80;;;25.40;87.40;;;;;;5043599;28;20065;-69
2022/07/11 13:28:33;;;;;;;3.20;0.82;;;25.40;87.40;;;;;;5037472;28;20706;-70